sensor_id;sensor_type;location;lat;lon;timestamp;P1;durP1;ratioP1;P2;durP2;ratioP2
37559;SDS011;23398;50.928;7.084;2023-04-06T00:00:43;4.27;;;3.00;;
37559;SDS011;23398;50.928;7.084;2023-04-06T00:03:08;4.33;;;3.10;;
37559;SDS011;23398;50.928;7.084;2023-04-06T00:05:34;4.10;;;3.27;;
37559;SDS011;23398;50.928;7.084;2023-04-06T00:08:00;6.73;;;3.07;;
37559;SDS011;23398;50.928;7.084;2023-04-06T00:10:25;2.90;;;2.60;;
37559;SDS011;23398;50.928;7.084;2023-04-06T00:12:51;3.97;;;2.60;;
37559;SDS011;23398;50.928;7.084;2023-04-06T00:15:17;4.00;;;2.60;;
37559;SDS011;23398;50.928;7.084;2023-04-06T00:17:43;3.83;;;2.60;;
37559;SDS011;23398;50.928;7.084;2023-04-06T00:20:09;3.67;;;3.03;;
37559;SDS011;23398;50.928;7.084;2023-04-06T00:22:35;4.10;;;2.80;;
37559;SDS011;23398;50.928;7.084;2023-04-06T00:25:01;3.90;;;2.63;;
37559;SDS011;23398;50.928;7.084;2023-04-06T00:27:26;3.83;;;2.50;;
37559;SDS011;23398;50.928;7.084;2023-04-06T00:29:52;4.27;;;3.07;;
37559;SDS011;23398;50.928;7.084;2023-04-06T00:32:18;6.37;;;3.43;;
37559;SDS011;23398;50.928;7.084;2023-04-06T00:34:43;6.70;;;4.23;;
37559;SDS011;23398;50.928;7.084;2023-04-06T00:37:10;4.43;;;3.00;;
37559;SDS011;23398;50.928;7.084;2023-04-06T00:39:36;5.20;;;2.93;;
37559;SDS011;23398;50.928;7.084;2023-04-06T00:42:03;2.87;;;2.57;;
37559;SDS011;23398;50.928;7.084;2023-04-06T00:44:36;3.67;;;2.80;;
37559;SDS011;23398;50.928;7.084;2023-04-06T00:47:01;4.60;;;2.80;;
37559;SDS011;23398;50.928;7.084;2023-04-06T00:49:27;4.00;;;2.70;;
37559;SDS011;23398;50.928;7.084;2023-04-06T00:51:53;3.23;;;2.43;;
37559;SDS011;23398;50.928;7.084;2023-04-06T00:54:18;3.40;;;2.37;;
37559;SDS011;23398;50.928;7.084;2023-04-06T00:56:44;4.20;;;2.60;;
37559;SDS011;23398;50.928;7.084;2023-04-06T00:59:10;3.70;;;2.70;;
37559;SDS011;23398;50.928;7.084;2023-04-06T01:01:37;3.70;;;2.40;;
37559;SDS011;23398;50.928;7.084;2023-04-06T01:04:02;2.60;;;2.00;;
37559;SDS011;23398;50.928;7.084;2023-04-06T01:06:28;3.77;;;2.40;;
37559;SDS011;23398;50.928;7.084;2023-04-06T01:08:54;4.70;;;2.80;;
37559;SDS011;23398;50.928;7.084;2023-04-06T01:11:20;3.23;;;2.60;;
37559;SDS011;23398;50.928;7.084;2023-04-06T01:13:45;3.33;;;2.40;;
37559;SDS011;23398;50.928;7.084;2023-04-06T01:16:11;4.73;;;2.77;;
37559;SDS011;23398;50.928;7.084;2023-04-06T01:18:37;3.90;;;2.57;;
37559;SDS011;23398;50.928;7.084;2023-04-06T01:21:03;5.23;;;3.10;;
37559;SDS011;23398;50.928;7.084;2023-04-06T01:23:29;4.27;;;2.80;;
37559;SDS011;23398;50.928;7.084;2023-04-06T01:25:54;4.70;;;2.90;;
37559;SDS011;23398;50.928;7.084;2023-04-06T01:28:20;3.47;;;2.87;;
37559;SDS011;23398;50.928;7.084;2023-04-06T01:30:46;3.80;;;2.70;;
37559;SDS011;23398;50.928;7.084;2023-04-06T01:33:11;4.67;;;2.63;;
37559;SDS011;23398;50.928;7.084;2023-04-06T01:35:37;3.63;;;2.80;;
37559;SDS011;23398;50.928;7.084;2023-04-06T01:38:02;4.07;;;2.53;;
37559;SDS011;23398;50.928;7.084;2023-04-06T01:40:28;3.80;;;2.80;;
37559;SDS011;23398;50.928;7.084;2023-04-06T01:42:54;4.30;;;2.47;;
37559;SDS011;23398;50.928;7.084;2023-04-06T01:45:20;3.27;;;2.60;;
37559;SDS011;23398;50.928;7.084;2023-04-06T01:47:46;7.17;;;3.00;;
37559;SDS011;23398;50.928;7.084;2023-04-06T01:50:11;6.20;;;3.07;;
37559;SDS011;23398;50.928;7.084;2023-04-06T01:52:37;3.73;;;2.67;;
37559;SDS011;23398;50.928;7.084;2023-04-06T01:55:03;4.20;;;2.67;;
37559;SDS011;23398;50.928;7.084;2023-04-06T01:57:29;3.70;;;2.67;;
37559;SDS011;23398;50.928;7.084;2023-04-06T01:59:54;4.60;;;2.50;;
37559;SDS011;23398;50.928;7.084;2023-04-06T02:02:20;3.97;;;3.00;;
37559;SDS011;23398;50.928;7.084;2023-04-06T02:04:46;4.73;;;3.23;;
37559;SDS011;23398;50.928;7.084;2023-04-06T02:07:11;4.30;;;3.00;;
37559;SDS011;23398;50.928;7.084;2023-04-06T02:09:37;5.20;;;3.00;;
37559;SDS011;23398;50.928;7.084;2023-04-06T02:12:02;5.90;;;3.10;;
37559;SDS011;23398;50.928;7.084;2023-04-06T02:14:28;4.97;;;2.97;;
37559;SDS011;23398;50.928;7.084;2023-04-06T02:16:54;4.07;;;3.07;;
37559;SDS011;23398;50.928;7.084;2023-04-06T02:19:19;4.37;;;2.53;;
37559;SDS011;23398;50.928;7.084;2023-04-06T02:21:45;3.50;;;2.67;;
37559;SDS011;23398;50.928;7.084;2023-04-06T02:24:11;3.73;;;2.93;;
37559;SDS011;23398;50.928;7.084;2023-04-06T02:26:36;4.83;;;3.17;;
37559;SDS011;23398;50.928;7.084;2023-04-06T02:29:02;6.03;;;3.10;;
37559;SDS011;23398;50.928;7.084;2023-04-06T02:31:27;4.00;;;3.10;;
37559;SDS011;23398;50.928;7.084;2023-04-06T02:33:53;4.67;;;2.80;;
37559;SDS011;23398;50.928;7.084;2023-04-06T02:36:19;3.97;;;3.03;;
37559;SDS011;23398;50.928;7.084;2023-04-06T02:38:45;5.00;;;2.93;;
37559;SDS011;23398;50.928;7.084;2023-04-06T02:41:10;5.67;;;3.10;;
37559;SDS011;23398;50.928;7.084;2023-04-06T02:43:36;4.57;;;3.30;;
37559;SDS011;23398;50.928;7.084;2023-04-06T02:46:01;4.60;;;3.10;;
37559;SDS011;23398;50.928;7.084;2023-04-06T02:48:27;4.70;;;3.17;;
37559;SDS011;23398;50.928;7.084;2023-04-06T02:50:53;4.87;;;2.70;;
37559;SDS011;23398;50.928;7.084;2023-04-06T02:53:18;3.77;;;2.80;;
37559;SDS011;23398;50.928;7.084;2023-04-06T02:55:44;6.93;;;2.97;;
37559;SDS011;23398;50.928;7.084;2023-04-06T02:58:10;4.97;;;3.03;;
37559;SDS011;23398;50.928;7.084;2023-04-06T03:00:36;3.67;;;2.83;;
37559;SDS011;23398;50.928;7.084;2023-04-06T03:03:02;4.37;;;3.30;;
37559;SDS011;23398;50.928;7.084;2023-04-06T03:05:28;3.93;;;2.93;;
37559;SDS011;23398;50.928;7.084;2023-04-06T03:07:53;5.60;;;3.00;;
37559;SDS011;23398;50.928;7.084;2023-04-06T03:10:19;4.87;;;3.07;;
37559;SDS011;23398;50.928;7.084;2023-04-06T03:12:44;3.50;;;3.10;;
37559;SDS011;23398;50.928;7.084;2023-04-06T03:15:10;4.27;;;3.10;;
37559;SDS011;23398;50.928;7.084;2023-04-06T03:17:36;5.63;;;3.27;;
37559;SDS011;23398;50.928;7.084;2023-04-06T03:20:02;4.13;;;2.90;;
37559;SDS011;23398;50.928;7.084;2023-04-06T03:22:28;3.73;;;3.00;;
37559;SDS011;23398;50.928;7.084;2023-04-06T03:24:54;4.67;;;3.37;;
37559;SDS011;23398;50.928;7.084;2023-04-06T03:27:20;3.80;;;2.90;;
37559;SDS011;23398;50.928;7.084;2023-04-06T03:29:45;5.03;;;3.27;;
37559;SDS011;23398;50.928;7.084;2023-04-06T03:32:11;4.00;;;3.10;;
37559;SDS011;23398;50.928;7.084;2023-04-06T03:34:37;3.57;;;2.87;;
37559;SDS011;23398;50.928;7.084;2023-04-06T03:37:03;4.17;;;3.20;;
37559;SDS011;23398;50.928;7.084;2023-04-06T03:39:29;5.20;;;3.40;;
37559;SDS011;23398;50.928;7.084;2023-04-06T03:41:55;5.70;;;3.20;;
37559;SDS011;23398;50.928;7.084;2023-04-06T03:44:21;4.87;;;3.27;;
37559;SDS011;23398;50.928;7.084;2023-04-06T03:46:46;6.60;;;3.77;;
37559;SDS011;23398;50.928;7.084;2023-04-06T03:49:12;6.10;;;2.97;;
37559;SDS011;23398;50.928;7.084;2023-04-06T03:51:37;4.07;;;3.03;;
37559;SDS011;23398;50.928;7.084;2023-04-06T03:54:03;3.40;;;2.63;;
37559;SDS011;23398;50.928;7.084;2023-04-06T03:56:29;5.57;;;3.20;;
37559;SDS011;23398;50.928;7.084;2023-04-06T03:58:55;3.60;;;2.90;;
37559;SDS011;23398;50.928;7.084;2023-04-06T04:01:21;3.80;;;2.90;;
37559;SDS011;23398;50.928;7.084;2023-04-06T04:03:46;4.70;;;3.23;;
37559;SDS011;23398;50.928;7.084;2023-04-06T04:06:12;4.40;;;3.10;;
37559;SDS011;23398;50.928;7.084;2023-04-06T04:08:38;5.03;;;3.37;;
37559;SDS011;23398;50.928;7.084;2023-04-06T04:11:03;4.10;;;3.10;;
37559;SDS011;23398;50.928;7.084;2023-04-06T04:13:29;3.77;;;3.13;;
37559;SDS011;23398;50.928;7.084;2023-04-06T04:15:55;4.63;;;3.23;;
37559;SDS011;23398;50.928;7.084;2023-04-06T04:18:21;5.20;;;3.90;;
37559;SDS011;23398;50.928;7.084;2023-04-06T04:20:47;5.67;;;3.80;;
37559;SDS011;23398;50.928;7.084;2023-04-06T04:23:12;5.20;;;3.73;;
37559;SDS011;23398;50.928;7.084;2023-04-06T04:25:38;4.30;;;3.30;;
37559;SDS011;23398;50.928;7.084;2023-04-06T04:28:03;4.33;;;3.03;;
37559;SDS011;23398;50.928;7.084;2023-04-06T04:30:29;5.40;;;3.47;;
37559;SDS011;23398;50.928;7.084;2023-04-06T04:32:55;5.73;;;3.57;;
37559;SDS011;23398;50.928;7.084;2023-04-06T04:35:21;4.93;;;3.13;;
37559;SDS011;23398;50.928;7.084;2023-04-06T04:37:46;5.77;;;3.27;;
37559;SDS011;23398;50.928;7.084;2023-04-06T04:40:12;4.87;;;2.90;;
37559;SDS011;23398;50.928;7.084;2023-04-06T04:42:38;5.70;;;3.00;;
37559;SDS011;23398;50.928;7.084;2023-04-06T04:45:04;4.00;;;2.97;;
37559;SDS011;23398;50.928;7.084;2023-04-06T04:47:30;5.37;;;3.30;;
37559;SDS011;23398;50.928;7.084;2023-04-06T04:49:56;6.17;;;3.80;;
37559;SDS011;23398;50.928;7.084;2023-04-06T04:52:22;6.30;;;4.00;;
37559;SDS011;23398;50.928;7.084;2023-04-06T04:54:47;5.77;;;3.77;;
37559;SDS011;23398;50.928;7.084;2023-04-06T04:57:13;6.47;;;4.20;;
37559;SDS011;23398;50.928;7.084;2023-04-06T04:59:39;7.53;;;3.70;;
37559;SDS011;23398;50.928;7.084;2023-04-06T05:02:04;4.97;;;3.30;;
37559;SDS011;23398;50.928;7.084;2023-04-06T05:04:30;6.13;;;3.47;;
37559;SDS011;23398;50.928;7.084;2023-04-06T05:07:06;5.40;;;3.37;;
37559;SDS011;23398;50.928;7.084;2023-04-06T05:09:32;6.40;;;3.47;;
37559;SDS011;23398;50.928;7.084;2023-04-06T05:11:58;5.37;;;3.63;;
37559;SDS011;23398;50.928;7.084;2023-04-06T05:14:25;5.80;;;3.37;;
37559;SDS011;23398;50.928;7.084;2023-04-06T05:16:51;5.67;;;3.50;;
37559;SDS011;23398;50.928;7.084;2023-04-06T05:19:17;8.50;;;3.60;;
37559;SDS011;23398;50.928;7.084;2023-04-06T05:21:43;6.00;;;3.30;;
37559;SDS011;23398;50.928;7.084;2023-04-06T05:24:09;4.43;;;3.27;;
37559;SDS011;23398;50.928;7.084;2023-04-06T05:26:35;5.17;;;3.27;;
37559;SDS011;23398;50.928;7.084;2023-04-06T05:29:01;6.70;;;3.30;;
37559;SDS011;23398;50.928;7.084;2023-04-06T05:31:26;5.77;;;3.80;;
37559;SDS011;23398;50.928;7.084;2023-04-06T05:33:52;7.90;;;3.80;;
37559;SDS011;23398;50.928;7.084;2023-04-06T05:36:18;4.50;;;3.47;;
37559;SDS011;23398;50.928;7.084;2023-04-06T05:38:43;5.30;;;3.47;;
37559;SDS011;23398;50.928;7.084;2023-04-06T05:41:09;6.63;;;3.93;;
37559;SDS011;23398;50.928;7.084;2023-04-06T05:43:35;5.50;;;4.03;;
37559;SDS011;23398;50.928;7.084;2023-04-06T05:46:01;6.63;;;4.13;;
37559;SDS011;23398;50.928;7.084;2023-04-06T05:48:27;5.60;;;3.77;;
37559;SDS011;23398;50.928;7.084;2023-04-06T05:50:52;6.43;;;3.77;;
37559;SDS011;23398;50.928;7.084;2023-04-06T05:53:18;5.37;;;3.67;;
37559;SDS011;23398;50.928;7.084;2023-04-06T05:55:46;5.27;;;3.87;;
37559;SDS011;23398;50.928;7.084;2023-04-06T05:58:11;5.00;;;3.70;;
37559;SDS011;23398;50.928;7.084;2023-04-06T06:00:37;5.50;;;3.70;;
37559;SDS011;23398;50.928;7.084;2023-04-06T06:03:03;5.20;;;3.77;;
37559;SDS011;23398;50.928;7.084;2023-04-06T06:05:29;4.83;;;3.40;;
37559;SDS011;23398;50.928;7.084;2023-04-06T06:07:55;5.13;;;4.30;;
37559;SDS011;23398;50.928;7.084;2023-04-06T06:10:21;5.83;;;4.03;;
37559;SDS011;23398;50.928;7.084;2023-04-06T06:12:46;4.60;;;3.33;;
37559;SDS011;23398;50.928;7.084;2023-04-06T06:15:12;6.27;;;4.00;;
37559;SDS011;23398;50.928;7.084;2023-04-06T06:17:38;6.23;;;3.40;;
37559;SDS011;23398;50.928;7.084;2023-04-06T06:20:04;5.03;;;3.70;;
37559;SDS011;23398;50.928;7.084;2023-04-06T06:22:31;6.43;;;3.60;;
37559;SDS011;23398;50.928;7.084;2023-04-06T06:24:57;6.03;;;3.87;;
37559;SDS011;23398;50.928;7.084;2023-04-06T06:27:22;6.73;;;4.23;;
37559;SDS011;23398;50.928;7.084;2023-04-06T06:29:48;6.27;;;4.37;;
37559;SDS011;23398;50.928;7.084;2023-04-06T06:32:14;8.47;;;4.77;;
37559;SDS011;23398;50.928;7.084;2023-04-06T06:34:40;6.27;;;4.37;;
37559;SDS011;23398;50.928;7.084;2023-04-06T06:37:05;5.80;;;4.33;;
37559;SDS011;23398;50.928;7.084;2023-04-06T06:39:31;7.03;;;4.70;;
37559;SDS011;23398;50.928;7.084;2023-04-06T06:41:57;6.60;;;4.67;;
37559;SDS011;23398;50.928;7.084;2023-04-06T06:44:25;6.20;;;4.20;;
37559;SDS011;23398;50.928;7.084;2023-04-06T06:46:51;7.60;;;4.47;;
37559;SDS011;23398;50.928;7.084;2023-04-06T06:49:17;5.83;;;4.30;;
37559;SDS011;23398;50.928;7.084;2023-04-06T06:51:43;10.63;;;4.70;;
37559;SDS011;23398;50.928;7.084;2023-04-06T06:54:09;6.72;;;4.32;;
37559;SDS011;23398;50.928;7.084;2023-04-06T06:56:34;7.60;;;4.70;;
37559;SDS011;23398;50.928;7.084;2023-04-06T06:59:02;5.75;;;4.22;;
37559;SDS011;23398;50.928;7.084;2023-04-06T07:01:28;5.57;;;4.10;;
37559;SDS011;23398;50.928;7.084;2023-04-06T07:03:54;5.45;;;4.18;;
37559;SDS011;23398;50.928;7.084;2023-04-06T07:06:19;5.47;;;4.53;;
37559;SDS011;23398;50.928;7.084;2023-04-06T07:08:46;5.20;;;4.20;;
37559;SDS011;23398;50.928;7.084;2023-04-06T07:11:11;5.32;;;4.20;;
37559;SDS011;23398;50.928;7.084;2023-04-06T07:13:37;5.10;;;4.15;;
37559;SDS011;23398;50.928;7.084;2023-04-06T07:16:02;4.63;;;4.10;;
37559;SDS011;23398;50.928;7.084;2023-04-06T07:18:28;5.72;;;4.00;;
37559;SDS011;23398;50.928;7.084;2023-04-06T07:20:54;4.55;;;3.92;;
37559;SDS011;23398;50.928;7.084;2023-04-06T07:23:20;4.63;;;4.13;;
37559;SDS011;23398;50.928;7.084;2023-04-06T07:25:45;6.65;;;4.97;;
37559;SDS011;23398;50.928;7.084;2023-04-06T07:28:11;5.22;;;4.53;;
37559;SDS011;23398;50.928;7.084;2023-04-06T07:30:37;5.70;;;4.07;;
37559;SDS011;23398;50.928;7.084;2023-04-06T07:33:03;5.03;;;4.22;;
37559;SDS011;23398;50.928;7.084;2023-04-06T07:35:30;4.78;;;3.85;;
37559;SDS011;23398;50.928;7.084;2023-04-06T07:37:56;5.30;;;4.80;;
37559;SDS011;23398;50.928;7.084;2023-04-06T07:40:21;5.85;;;4.25;;
37559;SDS011;23398;50.928;7.084;2023-04-06T07:42:47;4.57;;;4.07;;
37559;SDS011;23398;50.928;7.084;2023-04-06T07:45:13;4.95;;;3.85;;
37559;SDS011;23398;50.928;7.084;2023-04-06T07:47:40;6.40;;;4.25;;
37559;SDS011;23398;50.928;7.084;2023-04-06T07:50:06;4.93;;;4.00;;
37559;SDS011;23398;50.928;7.084;2023-04-06T07:52:32;4.85;;;4.35;;
37559;SDS011;23398;50.928;7.084;2023-04-06T07:54:58;8.25;;;4.63;;
37559;SDS011;23398;50.928;7.084;2023-04-06T07:57:24;4.55;;;4.10;;
37559;SDS011;23398;50.928;7.084;2023-04-06T07:59:50;5.32;;;4.30;;
37559;SDS011;23398;50.928;7.084;2023-04-06T08:02:15;5.07;;;4.47;;
37559;SDS011;23398;50.928;7.084;2023-04-06T08:04:41;4.75;;;3.67;;
37559;SDS011;23398;50.928;7.084;2023-04-06T08:07:07;4.82;;;4.10;;
37559;SDS011;23398;50.928;7.084;2023-04-06T08:09:32;4.63;;;4.20;;
37559;SDS011;23398;50.928;7.084;2023-04-06T08:11:58;4.38;;;3.97;;
37559;SDS011;23398;50.928;7.084;2023-04-06T08:14:24;4.90;;;4.13;;
37559;SDS011;23398;50.928;7.084;2023-04-06T08:16:49;5.40;;;4.15;;
37559;SDS011;23398;50.928;7.084;2023-04-06T08:19:15;5.15;;;4.65;;
37559;SDS011;23398;50.928;7.084;2023-04-06T08:21:43;4.78;;;4.38;;
37559;SDS011;23398;50.928;7.084;2023-04-06T08:24:11;4.80;;;4.38;;
37559;SDS011;23398;50.928;7.084;2023-04-06T08:26:37;5.10;;;4.53;;
37559;SDS011;23398;50.928;7.084;2023-04-06T08:29:02;5.90;;;4.50;;
37559;SDS011;23398;50.928;7.084;2023-04-06T08:31:29;5.40;;;4.90;;
37559;SDS011;23398;50.928;7.084;2023-04-06T08:33:55;6.72;;;4.95;;
37559;SDS011;23398;50.928;7.084;2023-04-06T08:36:21;5.50;;;4.35;;
37559;SDS011;23398;50.928;7.084;2023-04-06T08:38:48;5.55;;;4.82;;
37559;SDS011;23398;50.928;7.084;2023-04-06T08:41:14;6.43;;;5.20;;
37559;SDS011;23398;50.928;7.084;2023-04-06T08:43:43;5.50;;;4.80;;
37559;SDS011;23398;50.928;7.084;2023-04-06T08:46:11;5.35;;;4.85;;
37559;SDS011;23398;50.928;7.084;2023-04-06T08:48:41;6.95;;;5.05;;
37559;SDS011;23398;50.928;7.084;2023-04-06T08:51:08;6.38;;;4.35;;
37559;SDS011;23398;50.928;7.084;2023-04-06T08:53:35;5.57;;;4.93;;
37559;SDS011;23398;50.928;7.084;2023-04-06T08:56:01;5.78;;;4.85;;
37559;SDS011;23398;50.928;7.084;2023-04-06T08:58:28;5.95;;;4.95;;
37559;SDS011;23398;50.928;7.084;2023-04-06T09:01:08;5.63;;;4.65;;
37559;SDS011;23398;50.928;7.084;2023-04-06T09:03:37;5.47;;;4.90;;
37559;SDS011;23398;50.928;7.084;2023-04-06T09:06:07;6.10;;;4.80;;
37559;SDS011;23398;50.928;7.084;2023-04-06T09:08:34;6.53;;;5.07;;
37559;SDS011;23398;50.928;7.084;2023-04-06T09:11:03;5.68;;;5.07;;
37559;SDS011;23398;50.928;7.084;2023-04-06T09:13:29;6.35;;;5.18;;
37559;SDS011;23398;50.928;7.084;2023-04-06T09:16:02;6.95;;;5.25;;
37559;SDS011;23398;50.928;7.084;2023-04-06T09:18:31;6.07;;;5.20;;
37559;SDS011;23398;50.928;7.084;2023-04-06T09:20:58;5.50;;;4.97;;
37559;SDS011;23398;50.928;7.084;2023-04-06T09:23:28;5.65;;;4.82;;
37559;SDS011;23398;50.928;7.084;2023-04-06T09:26:16;9.25;;;5.95;;
37559;SDS011;23398;50.928;7.084;2023-04-06T09:28:47;7.28;;;5.20;;
37559;SDS011;23398;50.928;7.084;2023-04-06T09:31:16;6.25;;;5.03;;
37559;SDS011;23398;50.928;7.084;2023-04-06T09:33:47;5.65;;;5.07;;
37559;SDS011;23398;50.928;7.084;2023-04-06T09:36:13;7.20;;;5.13;;
37559;SDS011;23398;50.928;7.084;2023-04-06T09:39:00;6.35;;;5.38;;
37559;SDS011;23398;50.928;7.084;2023-04-06T09:41:31;7.18;;;5.70;;
37559;SDS011;23398;50.928;7.084;2023-04-06T09:44:09;6.03;;;5.32;;
37559;SDS011;23398;50.928;7.084;2023-04-06T09:46:36;7.15;;;5.35;;
37559;SDS011;23398;50.928;7.084;2023-04-06T09:49:06;6.32;;;5.38;;
37559;SDS011;23398;50.928;7.084;2023-04-06T09:51:46;8.13;;;5.75;;
37559;SDS011;23398;50.928;7.084;2023-04-06T09:54:23;5.97;;;5.07;;
37559;SDS011;23398;50.928;7.084;2023-04-06T09:56:56;6.10;;;5.45;;
37559;SDS011;23398;50.928;7.084;2023-04-06T09:59:50;6.65;;;5.65;;
37559;SDS011;23398;50.928;7.084;2023-04-06T10:05:38;6.53;;;5.30;;
37559;SDS011;23398;50.928;7.084;2023-04-06T10:08:11;8.07;;;5.20;;
37559;SDS011;23398;50.928;7.084;2023-04-06T10:10:38;6.85;;;5.53;;
37559;SDS011;23398;50.928;7.084;2023-04-06T10:13:04;6.85;;;6.15;;
37559;SDS011;23398;50.928;7.084;2023-04-06T10:15:30;7.55;;;6.07;;
37559;SDS011;23398;50.928;7.084;2023-04-06T10:17:59;6.97;;;5.93;;
37559;SDS011;23398;50.928;7.084;2023-04-06T10:20:28;7.18;;;6.07;;
37559;SDS011;23398;50.928;7.084;2023-04-06T10:23:08;7.10;;;5.88;;
37559;SDS011;23398;50.928;7.084;2023-04-06T10:25:35;8.23;;;6.10;;
37559;SDS011;23398;50.928;7.084;2023-04-06T10:28:06;7.00;;;5.93;;
37559;SDS011;23398;50.928;7.084;2023-04-06T10:30:41;7.20;;;6.15;;
37559;SDS011;23398;50.928;7.084;2023-04-06T10:33:18;7.18;;;6.05;;
37559;SDS011;23398;50.928;7.084;2023-04-06T10:35:44;8.40;;;6.55;;
37559;SDS011;23398;50.928;7.084;2023-04-06T10:38:10;6.57;;;5.88;;
37559;SDS011;23398;50.928;7.084;2023-04-06T10:40:39;7.68;;;6.57;;
37559;SDS011;23398;50.928;7.084;2023-04-06T10:43:13;8.80;;;6.40;;
37559;SDS011;23398;50.928;7.084;2023-04-06T10:45:57;8.45;;;6.15;;
37559;SDS011;23398;50.928;7.084;2023-04-06T10:48:25;8.40;;;6.63;;
37559;SDS011;23398;50.928;7.084;2023-04-06T10:51:10;7.85;;;6.72;;
37559;SDS011;23398;50.928;7.084;2023-04-06T10:53:38;10.00;;;7.38;;
37559;SDS011;23398;50.928;7.084;2023-04-06T10:56:05;9.10;;;7.38;;
37559;SDS011;23398;50.928;7.084;2023-04-06T10:58:38;8.38;;;7.35;;
37559;SDS011;23398;50.928;7.084;2023-04-06T11:01:11;8.27;;;6.88;;
37559;SDS011;23398;50.928;7.084;2023-04-06T11:06:10;9.55;;;6.65;;
37559;SDS011;23398;50.928;7.084;2023-04-06T11:08:36;9.95;;;7.47;;
37559;SDS011;23398;50.928;7.084;2023-04-06T11:11:07;9.70;;;7.18;;
37559;SDS011;23398;50.928;7.084;2023-04-06T11:13:39;9.10;;;6.70;;
37559;SDS011;23398;50.928;7.084;2023-04-06T11:16:15;9.80;;;7.38;;
37559;SDS011;23398;50.928;7.084;2023-04-06T11:18:55;11.35;;;7.43;;
37559;SDS011;23398;50.928;7.084;2023-04-06T11:21:43;8.65;;;6.85;;
37559;SDS011;23398;50.928;7.084;2023-04-06T11:24:17;7.78;;;6.43;;
37559;SDS011;23398;50.928;7.084;2023-04-06T11:26:48;7.38;;;6.43;;
37559;SDS011;23398;50.928;7.084;2023-04-06T11:29:23;8.63;;;6.85;;
37559;SDS011;23398;50.928;7.084;2023-04-06T11:31:52;11.25;;;7.82;;
37559;SDS011;23398;50.928;7.084;2023-04-06T11:34:25;10.10;;;7.18;;
37559;SDS011;23398;50.928;7.084;2023-04-06T11:36:56;9.88;;;7.60;;
37559;SDS011;23398;50.928;7.084;2023-04-06T11:39:24;11.07;;;8.45;;
37559;SDS011;23398;50.928;7.084;2023-04-06T11:41:52;10.45;;;7.90;;
37559;SDS011;23398;50.928;7.084;2023-04-06T11:47:05;9.60;;;8.13;;
37559;SDS011;23398;50.928;7.084;2023-04-06T11:49:33;9.73;;;7.82;;
37559;SDS011;23398;50.928;7.084;2023-04-06T11:52:02;11.13;;;8.27;;
37559;SDS011;23398;50.928;7.084;2023-04-06T11:54:39;8.90;;;7.15;;
37559;SDS011;23398;50.928;7.084;2023-04-06T11:57:05;11.00;;;7.28;;
37559;SDS011;23398;50.928;7.084;2023-04-06T11:59:33;11.23;;;8.05;;
37559;SDS011;23398;50.928;7.084;2023-04-06T12:02:03;8.93;;;7.13;;
37559;SDS011;23398;50.928;7.084;2023-04-06T12:04:29;9.30;;;7.32;;
37559;SDS011;23398;50.928;7.084;2023-04-06T12:06:55;8.85;;;6.95;;
37559;SDS011;23398;50.928;7.084;2023-04-06T12:09:21;9.70;;;7.47;;
37559;SDS011;23398;50.928;7.084;2023-04-06T12:11:46;8.57;;;6.57;;
37559;SDS011;23398;50.928;7.084;2023-04-06T12:14:12;9.18;;;6.75;;
37559;SDS011;23398;50.928;7.084;2023-04-06T12:16:38;8.82;;;7.03;;
37559;SDS011;23398;50.928;7.084;2023-04-06T12:19:04;11.10;;;7.65;;
37559;SDS011;23398;50.928;7.084;2023-04-06T12:21:30;9.65;;;7.28;;
37559;SDS011;23398;50.928;7.084;2023-04-06T12:23:59;8.60;;;6.63;;
37559;SDS011;23398;50.928;7.084;2023-04-06T12:26:25;9.07;;;6.82;;
37559;SDS011;23398;50.928;7.084;2023-04-06T12:28:52;8.88;;;6.63;;
37559;SDS011;23398;50.928;7.084;2023-04-06T12:31:19;9.15;;;7.07;;
37559;SDS011;23398;50.928;7.084;2023-04-06T12:33:46;9.50;;;6.38;;
37559;SDS011;23398;50.928;7.084;2023-04-06T12:36:13;7.50;;;6.28;;
37559;SDS011;23398;50.928;7.084;2023-04-06T12:38:40;6.53;;;4.95;;
37559;SDS011;23398;50.928;7.084;2023-04-06T12:41:06;6.80;;;4.90;;
37559;SDS011;23398;50.928;7.084;2023-04-06T12:43:32;6.47;;;4.97;;
37559;SDS011;23398;50.928;7.084;2023-04-06T12:45:58;6.85;;;5.70;;
37559;SDS011;23398;50.928;7.084;2023-04-06T12:48:24;7.75;;;5.15;;
37559;SDS011;23398;50.928;7.084;2023-04-06T12:51:00;6.50;;;5.03;;
37559;SDS011;23398;50.928;7.084;2023-04-06T12:53:27;7.30;;;4.85;;
37559;SDS011;23398;50.928;7.084;2023-04-06T12:55:53;6.47;;;5.03;;
37559;SDS011;23398;50.928;7.084;2023-04-06T12:58:20;6.70;;;4.97;;
37559;SDS011;23398;50.928;7.084;2023-04-06T13:00:47;5.10;;;4.50;;
37559;SDS011;23398;50.928;7.084;2023-04-06T13:03:13;6.03;;;5.03;;
37559;SDS011;23398;50.928;7.084;2023-04-06T13:05:46;6.50;;;4.88;;
37559;SDS011;23398;50.928;7.084;2023-04-06T13:08:12;5.95;;;4.90;;
37559;SDS011;23398;50.928;7.084;2023-04-06T13:10:43;6.05;;;5.10;;
37559;SDS011;23398;50.928;7.084;2023-04-06T13:13:09;7.10;;;5.13;;
37559;SDS011;23398;50.928;7.084;2023-04-06T13:15:35;5.13;;;4.30;;
37559;SDS011;23398;50.928;7.084;2023-04-06T13:18:01;6.63;;;5.25;;
37559;SDS011;23398;50.928;7.084;2023-04-06T13:20:27;6.25;;;4.75;;
37559;SDS011;23398;50.928;7.084;2023-04-06T13:22:53;6.03;;;4.63;;
37559;SDS011;23398;50.928;7.084;2023-04-06T13:25:19;5.47;;;4.57;;
37559;SDS011;23398;50.928;7.084;2023-04-06T13:27:45;5.38;;;4.70;;
37559;SDS011;23398;50.928;7.084;2023-04-06T13:30:12;6.63;;;5.53;;
37559;SDS011;23398;50.928;7.084;2023-04-06T13:32:38;6.43;;;5.10;;
37559;SDS011;23398;50.928;7.084;2023-04-06T13:35:04;6.28;;;4.95;;
37559;SDS011;23398;50.928;7.084;2023-04-06T13:37:31;5.20;;;4.63;;
37559;SDS011;23398;50.928;7.084;2023-04-06T13:39:57;6.18;;;4.65;;
37559;SDS011;23398;50.928;7.084;2023-04-06T13:42:22;5.93;;;5.25;;
37559;SDS011;23398;50.928;7.084;2023-04-06T13:44:48;6.15;;;5.20;;
37559;SDS011;23398;50.928;7.084;2023-04-06T13:47:15;7.90;;;5.55;;
37559;SDS011;23398;50.928;7.084;2023-04-06T13:49:42;5.93;;;4.93;;
37559;SDS011;23398;50.928;7.084;2023-04-06T13:52:08;7.55;;;5.53;;
37559;SDS011;23398;50.928;7.084;2023-04-06T13:54:35;6.40;;;4.97;;
37559;SDS011;23398;50.928;7.084;2023-04-06T13:57:01;6.75;;;5.15;;
37559;SDS011;23398;50.928;7.084;2023-04-06T13:59:36;7.45;;;4.72;;
37559;SDS011;23398;50.928;7.084;2023-04-06T14:02:02;5.70;;;4.40;;
37559;SDS011;23398;50.928;7.084;2023-04-06T14:04:29;6.05;;;4.47;;
37559;SDS011;23398;50.928;7.084;2023-04-06T14:06:55;4.90;;;3.80;;
37559;SDS011;23398;50.928;7.084;2023-04-06T14:09:21;4.30;;;3.75;;
37559;SDS011;23398;50.928;7.084;2023-04-06T14:11:48;6.72;;;4.35;;
37559;SDS011;23398;50.928;7.084;2023-04-06T14:14:14;5.63;;;4.05;;
37559;SDS011;23398;50.928;7.084;2023-04-06T14:16:40;4.60;;;4.10;;
37559;SDS011;23398;50.928;7.084;2023-04-06T14:19:08;5.30;;;4.18;;
37559;SDS011;23398;50.928;7.084;2023-04-06T14:21:44;5.75;;;4.53;;
37559;SDS011;23398;50.928;7.084;2023-04-06T14:24:10;6.93;;;4.72;;
37559;SDS011;23398;50.928;7.084;2023-04-06T14:26:37;6.03;;;4.53;;
37559;SDS011;23398;50.928;7.084;2023-04-06T14:29:04;4.38;;;3.92;;
37559;SDS011;23398;50.928;7.084;2023-04-06T14:31:31;4.80;;;4.00;;
37559;SDS011;23398;50.928;7.084;2023-04-06T14:33:57;6.53;;;4.03;;
37559;SDS011;23398;50.928;7.084;2023-04-06T14:36:23;4.30;;;3.40;;
37559;SDS011;23398;50.928;7.084;2023-04-06T14:38:52;3.83;;;3.42;;
37559;SDS011;23398;50.928;7.084;2023-04-06T14:41:18;4.57;;;3.85;;
37559;SDS011;23398;50.928;7.084;2023-04-06T14:43:47;4.13;;;3.55;;
37559;SDS011;23398;50.928;7.084;2023-04-06T14:46:13;4.53;;;3.85;;
37559;SDS011;23398;50.928;7.084;2023-04-06T14:48:40;4.13;;;3.53;;
37559;SDS011;23398;50.928;7.084;2023-04-06T14:51:06;5.50;;;3.88;;
37559;SDS011;23398;50.928;7.084;2023-04-06T14:53:32;5.88;;;3.88;;
37559;SDS011;23398;50.928;7.084;2023-04-06T14:55:57;5.38;;;3.58;;